To NAV CANADA Home Page Login to a new session Search on AWWS site Disclaimer Vers la page française équivalente Tips FAQ What's new on the site To the Forecasts and Observations / NOTAM section To "File a Flight Plan" website Publications and other links Update of the User's profile FIC Telephone Numbers My Weather Data Folder Route Weather Data Regional Weather Data Local Weather Data To the Forecasts and Observations / NOTAM section
Request Generated 08/06/2020 at 18:27:47 UTC . Weather information available at that time is displayed.

METAR/TAF

PETERBOROUGH/ON    (show WxCam)

METAR CYPQ 061800Z AUTO VRB05KT 9SM OVC055 22/12 A3014 RMK SLP211 DENSITY ALT 1300FT=
METAR CYPQ 061700Z AUTO 22003KT 180V280 9SM BKN055 22/11 A3015 RMK TS/LTNG TEMPO UNAVBL SLP213 DENSITY ALT 1300FT=
METAR CYPQ 061600Z AUTO VRB02KT 9SM SCT046 22/10 A3016 RMK SLP214 DENSITY ALT 1300FT=

TAF AMD CYPQ 061442Z 0614/0702 VRB03KT P6SM SCT040
BECMG 0615/0617 30006KT
BECMG 0623/0701 26005KT
RMK FCST BASED ON AUTO OBS. NXT FCST BY 062000Z=
Your time UTC time
Weather data provided by Environment Canada and NAV CANADA